Time;durP1;ratioP1;P1;durP2;ratioP2;P2;SDS_P1;SDS_P2;PMS_P1;PMS_P2;Temp;Humidity;BMP_temperature;BMP_pressure;BME280_temperature;BME280_humidity;BME280_pressure;Samples;Min_cycle;Max_cycle;Signal;HPM_P1;HPM_P2
2022/08/03 00:02:15;;;;;;;;;;;;;;;19.73;100.00;101469.44;2614605;36;19977;-50
2022/08/03 00:04:43;;;;;;;;;;;;;;;19.70;100.00;101460.72;2615848;36;19938;-55
2022/08/03 00:07:14;;;;;;;;;;;;;;;19.63;100.00;101476.16;2614829;36;19970;-51
2022/08/03 00:09:42;;;;;;;;;;;;;;;19.56;100.00;101463.22;2616073;36;19950;-51
2022/08/03 00:12:10;;;;;;;;;;;;;;;19.51;100.00;101465.66;2615592;36;19975;-49
2022/08/03 00:14:38;;;;;;;;;;;;;;;19.47;100.00;101467.03;2615665;36;19990;-52
2022/08/03 00:17:06;;;;;;;;;;;;;;;19.49;100.00;101467.69;2614751;36;19954;-49
2022/08/03 00:19:34;;;;;;;;;;;;;;;19.53;100.00;101465.47;2615352;36;19938;-51
2022/08/03 00:22:02;;;;;;;;;;;;;;;19.62;100.00;101456.19;2615444;36;19946;-50
2022/08/03 00:24:35;;;;;;;;;;;;;;;19.52;100.00;101453.72;2616016;36;19976;-48
2022/08/03 00:27:03;;;;;;;;;;;;;;;19.59;100.00;101449.19;2615631;36;19997;-54
2022/08/03 00:29:31;;;;;;;;;;;;;;;19.61;100.00;101458.06;2616160;36;19957;-52
2022/08/03 00:31:59;;;;;;;;;;;;;;;19.44;100.00;101464.66;2614834;36;19975;-52
2022/08/03 00:34:27;;;;;;;;;;;;;;;19.34;100.00;101455.84;2615850;31;19946;-53
2022/08/03 00:36:55;;;;;;;;;;;;;;;19.25;100.00;101452.31;2615229;36;20424;-48
2022/08/03 00:39:23;;;;;;;;;;;;;;;19.25;100.00;101460.50;2615534;31;19955;-52
2022/08/03 00:41:53;;;;;;;;;;;;;;;19.28;100.00;101456.59;2615229;36;19946;-53
2022/08/03 00:44:22;;;;;;;;;;;;;;;19.26;100.00;101452.16;2615568;36;19946;-52
2022/08/03 00:46:50;;;;;;;;;;;;;;;19.24;100.00;101456.94;2615042;36;19958;-52
2022/08/03 00:49:18;;;;;;;;;;;;;;;19.19;100.00;101464.81;2615592;36;19954;-51
2022/08/03 00:51:46;;;;;;;;;;;;;;;19.21;100.00;101454.56;2615257;36;20461;-50
2022/08/03 00:54:14;;;;;;;;;;;;;;;19.21;100.00;101451.84;2615654;36;19973;-52
2022/08/03 00:56:42;;;;;;;;;;;;;;;19.27;100.00;101458.44;2615633;36;19964;-50
2022/08/03 00:59:14;;;;;;;;;;;;;;;19.32;100.00;101447.00;2615842;36;19970;-55
2022/08/03 01:01:42;;;;;;;;;;;;;;;19.24;100.00;101459.66;2615381;36;20407;-48
2022/08/03 01:04:10;;;;;;;;;;;;;;;19.36;100.00;101448.31;2614967;36;19953;-55
2022/08/03 01:06:44;;;;;;;;;;;;;;;19.33;100.00;101449.56;2615031;36;19950;-51
2022/08/03 01:09:17;;;;;;;;;;;;;;;19.39;100.00;101454.28;2615718;36;19981;-53
2022/08/03 01:11:48;;;;;;;;;;;;;;;19.37;100.00;101452.78;2614175;36;20055;-49
2022/08/03 01:14:22;;;;;;;;;;;;;;;19.48;100.00;101446.91;2615786;36;19951;-50
2022/08/03 01:16:56;;;;;;;;;;;;;;;19.34;100.00;101442.22;2614046;36;19973;-52
2022/08/03 01:19:46;;;;;;;;;;;;;;;19.32;100.00;101447.00;2615568;36;19943;-55
2022/08/03 01:22:23;;;;;;;;;;;;;;;19.19;100.00;101445.69;2615076;36;20062;-54
2022/08/03 01:24:57;;;;;;;;;;;;;;;19.20;100.00;101452.88;2614781;36;19962;-56
2022/08/03 01:27:30;;;;;;;;;;;;;;;19.16;100.00;101448.78;2615797;36;20367;-50
2022/08/03 01:30:05;;;;;;;;;;;;;;;19.21;100.00;101456.44;2615046;36;19958;-54
2022/08/03 01:32:37;;;;;;;;;;;;;;;19.25;100.00;101446.88;2614528;36;19954;-54
2022/08/03 01:35:07;;;;;;;;;;;;;;;19.17;100.00;101449.63;2615575;31;19987;-54
2022/08/03 01:37:38;;;;;;;;;;;;;;;19.07;100.00;101449.88;2615792;36;20295;-51
2022/08/03 01:40:07;;;;;;;;;;;;;;;19.06;100.00;101453.63;2614982;31;19947;-55
2022/08/03 01:42:38;;;;;;;;;;;;;;;19.11;100.00;101450.34;2614526;36;19954;-51
2022/08/03 01:45:10;;;;;;;;;;;;;;;19.07;100.00;101449.88;2615146;36;19972;-53
2022/08/03 01:47:38;;;;;;;;;;;;;;;18.97;100.00;101441.03;2614968;31;19951;-51
2022/08/03 01:50:07;;;;;;;;;;;;;;;18.94;100.00;101435.94;2614913;36;19970;-54
2022/08/03 01:52:35;;;;;;;;;;;;;;;18.94;100.00;101435.94;2615319;36;19958;-56
2022/08/03 01:55:04;;;;;;;;;;;;;;;18.99;100.00;101431.66;2615587;36;19950;-53
2022/08/03 01:57:33;;;;;;;;;;;;;;;19.00;100.00;101429.78;2614718;36;19981;-57
2022/08/03 02:00:02;;;;;;;;;;;;;;;18.98;100.00;101429.13;2615496;36;19951;-55
2022/08/03 02:02:36;;;;;;;;;;;;;;;19.01;100.00;101431.50;2615190;36;19950;-57
2022/08/03 02:05:06;;;;;;;;;;;;;;;19.05;100.00;101430.06;2615258;36;19950;-54
2022/08/03 02:07:36;;;;;;;;;;;;;;;19.02;100.00;101430.44;2615210;36;19953;-54
2022/08/03 02:10:05;;;;;;;;;;;;;;;18.99;100.00;101428.06;2615161;36;19954;-55
2022/08/03 02:12:34;;;;;;;;;;;;;;;18.96;100.00;101431.16;2615420;36;19954;-53
2022/08/03 02:15:03;;;;;;;;;;;;;;;18.98;100.00;101431.84;2615344;36;20328;-54
2022/08/03 02:17:31;;;;;;;;;;;;;;;19.04;100.00;101431.13;2614538;36;19954;-54
2022/08/03 02:20:03;;;;;;;;;;;;;;;19.03;100.00;101430.25;2615430;36;19979;-55
2022/08/03 02:22:33;;;;;;;;;;;;;;;19.06;100.00;101438.09;2615382;31;20397;-54
2022/08/03 02:25:01;;;;;;;;;;;;;;;19.08;100.00;101440.66;2615159;36;19958;-54
2022/08/03 02:27:31;;;;;;;;;;;;;;;18.99;100.00;101428.94;2614924;36;19953;-57
2022/08/03 02:30:03;;;;;;;;;;;;;;;18.92;100.00;101430.66;2615635;31;19946;-53
2022/08/03 02:32:32;;;;;;;;;;;;;;;18.88;100.00;101432.88;2623848;36;19957;-51
2022/08/03 02:35:05;;;;;;;;;;;;;;;18.93;100.00;101431.50;2614805;36;20016;-52
2022/08/03 02:37:35;;;;;;;;;;;;;;;18.93;100.00;101431.50;2615118;36;19945;-59
2022/08/03 02:40:05;;;;;;;;;;;;;;;18.90;100.00;101419.94;2615205;36;19938;-55
2022/08/03 02:42:34;;;;;;;;;;;;;;;18.99;100.00;101419.88;2614848;36;20420;-54
2022/08/03 02:45:04;;;;;;;;;;;;;;;18.98;100.00;101418.19;2614923;36;19955;-54
2022/08/03 02:47:33;;;;;;;;;;;;;;;19.18;100.00;101403.06;2614793;36;19938;-55
2022/08/03 02:50:04;;;;;;;;;;;;;;;19.17;100.00;101401.38;2615379;36;20364;-54
2022/08/03 02:52:35;;;;;;;;;;;;;;;18.92;100.00;101408.84;2615717;31;20474;-51
2022/08/03 02:55:04;;;;;;;;;;;;;;;18.86;100.00;101404.09;2615117;36;19954;-54
2022/08/03 02:57:35;;;;;;;;;;;;;;;18.85;100.00;101405.94;2615104;36;19951;-53
2022/08/03 03:00:03;;;;;;;;;;;;;;;18.79;100.00;101403.91;2616259;36;20355;-54
2022/08/03 03:02:32;;;;;;;;;;;;;;;18.86;100.00;101407.69;2615686;36;19946;-55
2022/08/03 03:05:01;;;;;;;;;;;;;;;18.82;100.00;101406.28;2615856;36;19997;-55
2022/08/03 03:07:32;;;;;;;;;;;;;;;18.78;100.00;101402.22;2616105;36;19954;-53
2022/08/03 03:10:01;;;;;;;;;;;;;;;18.90;100.00;101403.56;2615612;36;19950;-52
2022/08/03 03:12:30;;;;;;;;;;;;;;;18.90;100.00;101391.78;2615160;31;20009;-55
2022/08/03 03:14:58;;;;;;;;;;;;;;;18.81;100.00;101403.75;2616198;36;19946;-50
2022/08/03 03:17:27;;;;;;;;;;;;;;;18.81;100.00;101401.84;2614940;36;19950;-57
2022/08/03 03:19:55;;;;;;;;;;;;;;;18.79;100.00;101398.47;2616089;36;19950;-54
2022/08/03 03:22:24;;;;;;;;;;;;;;;18.78;100.00;101401.38;2615943;36;20375;-57
2022/08/03 03:24:56;;;;;;;;;;;;;;;18.71;100.00;101396.63;2615795;36;20043;-54
2022/08/03 03:27:24;;;;;;;;;;;;;;;18.78;100.00;101396.75;2615977;36;19957;-55
2022/08/03 03:29:52;;;;;;;;;;;;;;;18.81;100.00;101390.94;2615875;36;19946;-54
2022/08/03 03:32:21;;;;;;;;;;;;;;;18.84;100.00;101395.22;2614704;36;20468;-56
2022/08/03 03:34:49;;;;;;;;;;;;;;;18.91;100.00;101391.63;2615433;36;19946;-51
2022/08/03 03:37:17;;;;;;;;;;;;;;;18.88;100.00;101386.53;2615059;36;19971;-54
2022/08/03 03:39:45;;;;;;;;;;;;;;;18.75;100.00;101391.66;2615825;36;19945;-56
2022/08/03 03:42:16;;;;;;;;;;;;;;;18.78;100.00;101390.47;2615038;31;19973;-55
2022/08/03 03:44:44;;;;;;;;;;;;;;;18.75;100.00;101397.13;2616474;36;20379;-50
2022/08/03 03:47:12;;;;;;;;;;;;;;;18.77;100.00;101397.81;2614419;36;19970;-55
2022/08/03 03:49:41;;;;;;;;;;;;;;;18.65;100.00;101399.19;2615767;36;19961;-55
2022/08/03 03:52:09;;;;;;;;;;;;;;;18.59;100.00;101405.38;2615573;31;19947;-54
2022/08/03 03:54:41;;;;;;;;;;;;;;;18.56;100.00;101393.81;2616193;36;20002;-55
2022/08/03 03:57:10;;;;;;;;;;;;;;;18.59;100.00;101397.19;2615523;36;19950;-55
2022/08/03 03:59:42;;;;;;;;;;;;;;;18.54;100.00;101401.28;2616534;36;20370;-53
2022/08/03 04:02:11;;;;;;;;;;;;;;;18.58;100.00;101400.94;2614710;36;19981;-58
2022/08/03 04:12:43;;;;;;;;;;;;;;;18.66;100.00;101403.63;2615352;36;20624;-54
2022/08/03 04:15:17;;;;;;;;;;;;;;;18.68;100.00;101412.47;2616322;36;19954;-52
2022/08/03 04:17:45;;;;;;;;;;;;;;;18.68;100.00;101407.03;2615177;36;19954;-56
2022/08/03 04:20:15;;;;;;;;;;;;;;;18.66;100.00;101409.09;2615246;36;19953;-55
2022/08/03 04:22:44;;;;;;;;;;;;;;;18.57;100.00;101411.00;2615538;36;19946;-54
2022/08/03 04:25:16;;;;;;;;;;;;;;;18.51;100.00;101407.09;2615662;36;19947;-54
2022/08/03 04:27:45;;;;;;;;;;;;;;;18.54;100.00;101411.34;2615917;36;19969;-55
2022/08/03 04:30:14;;;;;;;;;;;;;;;18.53;100.00;101409.63;2615492;36;20015;-56
2022/08/03 04:32:50;;;;;;;;;;;;;;;18.52;100.00;101411.53;2615338;36;19953;-53
2022/08/03 04:35:19;;;;;;;;;;;;;;;18.64;100.00;101400.22;2615153;36;19951;-56
2022/08/03 04:37:48;;;;;;;;;;;;;;;18.65;100.00;101401.94;2615885;31;19958;-54
2022/08/03 04:40:20;;;;;;;;;;;;;;;18.65;100.00;101404.66;2615493;36;19950;-55
2022/08/03 04:42:50;;;;;;;;;;;;;;;18.65;100.00;101415.56;2616145;31;19950;-53
2022/08/03 04:45:19;;;;;;;;;;;;;;;18.63;100.00;101409.44;2615346;36;19985;-57
2022/08/03 04:47:50;;;;;;;;;;;;;;;18.58;100.00;101414.56;2614873;36;19946;-53
2022/08/03 04:50:19;;;;;;;;;;;;;;;18.82;100.00;101406.28;2615828;31;20306;-57
2022/08/03 04:52:47;;;;;;;;;;;;;;;18.84;100.00;101412.41;2615730;36;19950;-55
2022/08/03 04:55:26;;;;;;;;;;;;;;;18.82;100.00;101419.09;2616349;31;20382;-56
2022/08/03 04:57:54;;;;;;;;;;;;;;;18.85;100.00;101421.47;2615615;36;20360;-56
2022/08/03 05:00:22;;;;;;;;;;;;;;;18.88;100.00;101424.69;2615043;36;19947;-54
2022/08/03 05:02:54;;;;;;;;;;;;;;;18.83;100.00;101420.78;2614622;36;19977;-54
2022/08/03 05:05:22;;;;;;;;;;;;;;;18.89;100.00;101428.31;2615962;36;20348;-56
2022/08/03 05:07:50;;;;;;;;;;;;;;;19.00;100.00;101421.59;2615665;36;20636;-57
2022/08/03 05:10:18;;;;;;;;;;;;;;;18.97;100.00;101422.78;2615721;31;19946;-55
2022/08/03 05:12:47;;;;;;;;;;;;;;;18.96;100.00;101425.69;2615699;36;20343;-56
2022/08/03 05:15:15;;;;;;;;;;;;;;;19.09;100.00;101425.97;2615560;36;19950;-59
2022/08/03 05:17:43;;;;;;;;;;;;;;;19.16;100.00;101426.13;2614942;36;20463;-55
2022/08/03 05:20:14;;;;;;;;;;;;;;;19.09;100.00;101423.25;2614948;36;19951;-54
2022/08/03 05:22:42;;;;;;;;;;;;;;;19.16;100.00;101431.56;2615712;31;19955;-57
2022/08/03 05:25:10;;;;;;;;;;;;;;;19.22;100.00;101433.59;2615364;36;19989;-51
2022/08/03 05:27:38;;;;;;;;;;;;;;;19.45;100.00;101430.88;2615279;36;19947;-52
2022/08/03 05:30:07;;;;;;;;;;;;;;;19.40;100.00;101439.63;2615056;36;19989;-57
2022/08/03 05:32:35;;;;;;;;;;;;;;;19.40;100.00;101438.75;2614775;36;19947;-56
2022/08/03 05:35:03;;;;;;;;;;;;;;;19.25;100.00;101434.06;2615783;31;20437;-56
2022/08/03 05:37:34;;;;;;;;;;;;;;;19.34;100.00;101437.59;2614903;36;20443;-58
2022/08/03 05:40:02;;;;;;;;;;;;;;;19.41;100.00;101438.56;2615573;36;19972;-55
2022/08/03 05:42:30;;;;;;;;;;;;;;;19.55;100.00;101436.97;2614343;36;19946;-53
2022/08/03 05:44:58;;;;;;;;;;;;;;;19.46;100.00;101435.28;2615265;36;19950;-57
2022/08/03 05:47:26;;;;;;;;;;;;;;;19.49;100.00;101432.19;2614706;36;19970;-53
2022/08/03 05:49:55;;;;;;;;;;;;;;;19.51;100.00;101435.63;2615538;36;19946;-57
2022/08/03 05:52:23;;;;;;;;;;;;;;;19.35;100.00;101436.56;2615243;36;20531;-58
2022/08/03 05:54:53;;;;;;;;;;;;;;;19.57;100.00;101429.44;2616479;36;19947;-55
2022/08/03 05:57:21;;;;;;;;;;;;;;;19.50;100.00;101433.91;2616427;36;20431;-55
2022/08/03 05:59:49;;;;;;;;;;;;;;;19.53;100.00;101436.28;2616312;36;19981;-52
2022/08/03 06:02:17;;;;;;;;;;;;;;;19.52;100.00;101437.31;2613870;36;19958;-55
2022/08/03 06:04:45;;;;;;;;;;;;;;;19.55;100.00;101430.63;2615242;36;20001;-56
2022/08/03 06:07:13;;;;;;;;;;;;;;;19.56;100.00;101432.34;2615100;36;19950;-55
2022/08/03 06:09:42;;;;;;;;;;;;;;;19.72;100.00;101434.09;2615706;36;19985;-56
2022/08/03 06:12:12;;;;;;;;;;;;;;;19.69;100.00;101429.00;2614483;36;19946;-55
2022/08/03 06:14:41;;;;;;;;;;;;;;;19.86;100.00;101433.34;2616019;36;19947;-56
2022/08/03 06:17:09;;;;;;;;;;;;;;;19.95;100.00;101432.25;2614524;36;20002;-54
2022/08/03 06:19:37;;;;;;;;;;;;;;;20.07;100.00;101429.06;2615646;36;19969;-60
2022/08/03 06:22:05;;;;;;;;;;;;;;;20.17;100.00;101429.66;2614739;36;19950;-49
2022/08/03 06:24:33;;;;;;;;;;;;;;;20.19;100.00;101435.78;2614818;36;20499;-46
2022/08/03 06:27:01;;;;;;;;;;;;;;;20.46;100.00;101430.72;2615159;36;19945;-57
2022/08/03 06:29:32;;;;;;;;;;;;;;;20.45;100.00;101429.88;2615774;36;19938;-59
2022/08/03 06:32:00;;;;;;;;;;;;;;;20.46;100.00;101422.50;2614464;36;19958;-55
2022/08/03 06:34:31;;;;;;;;;;;;;;;20.60;100.00;101418.94;2615881;31;20396;-56
2022/08/03 06:36:59;;;;;;;;;;;;;;;20.63;100.00;101434.13;2614827;36;19993;-56
2022/08/03 06:39:27;;;;;;;;;;;;;;;20.64;100.00;101435.81;2615290;36;19977;-56
2022/08/03 06:41:55;;;;;;;;;;;;;;;20.76;100.00;101436.19;2614851;31;20557;-56
2022/08/03 06:44:23;;;;;;;;;;;;;;;21.05;100.00;101437.22;2614789;36;19946;-55
2022/08/03 06:46:54;;;;;;;;;;;;;;;21.09;100.00;101435.81;2614346;36;19961;-56
2022/08/03 06:49:22;;;;;;;;;;;;;;;21.23;100.00;101429.47;2615093;36;19981;-56
2022/08/03 06:51:51;;;;;;;;;;;;;;;21.40;100.00;101434.69;2614604;31;19950;-56
2022/08/03 06:54:20;;;;;;;;;;;;;;;21.28;100.00;101435.19;2615079;36;19953;-58
2022/08/03 06:56:49;;;;;;;;;;;;;;;21.60;100.00;101435.78;2614105;36;19951;-54
2022/08/03 06:59:17;;;;;;;;;;;;;;;21.52;100.00;101433.16;2615625;36;19962;-55
2022/08/03 07:01:45;;;;;;;;;;;;;;;21.60;100.00;101429.44;2614686;36;19946;-55
2022/08/03 07:04:15;;;;;;;;;;;;;;;21.41;100.00;101431.75;2615411;36;20009;-48
2022/08/03 07:06:43;;;;;;;;;;;;;;;21.72;100.00;101424.31;2614823;36;19953;-56
2022/08/03 07:09:11;;;;;;;;;;;;;;;21.82;100.00;101427.53;2615445;36;19984;-55
2022/08/03 07:11:39;;;;;;;;;;;;;;;21.81;100.00;101432.19;2615046;36;19950;-57
2022/08/03 07:14:08;;;;;;;;;;;;;;;21.96;100.00;101434.00;2615320;36;19950;-56
2022/08/03 07:16:36;;;;;;;;;;;;;;;22.12;100.00;101433.72;2615349;36;20341;-56
2022/08/03 07:19:04;;;;;;;;;;;;;;;22.36;100.00;101439.81;2614982;36;19950;-57
2022/08/03 07:21:34;;;;;;;;;;;;;;;22.71;100.00;101437.09;2615010;31;19974;-54
2022/08/03 07:24:02;;;;;;;;;;;;;;;22.49;100.00;101439.06;2615116;36;19946;-53
2022/08/03 07:26:30;;;;;;;;;;;;;;;22.42;100.00;101443.66;2614772;36;19981;-56
2022/08/03 07:28:59;;;;;;;;;;;;;;;22.40;100.00;101441.13;2615220;36;20460;-53
2022/08/03 07:31:27;;;;;;;;;;;;;;;22.42;100.00;101449.16;2614811;36;19954;-56
2022/08/03 07:33:55;;;;;;;;;;;;;;;22.44;100.00;101452.53;2614203;31;19950;-58
2022/08/03 07:36:24;;;;;;;;;;;;;;;22.71;100.00;101446.16;2614669;36;19977;-51
2022/08/03 07:38:56;;;;;;;;;;;;;;;22.74;100.00;101450.41;2613445;36;19958;-49
2022/08/03 07:41:24;;;;;;;;;;;;;;;22.66;100.00;101456.91;2614507;36;19946;-57
2022/08/03 07:43:52;;;;;;;;;;;;;;;23.11;100.00;101452.94;2614721;36;20000;-56
2022/08/03 07:46:21;;;;;;;;;;;;;;;22.98;100.00;101449.06;2614299;36;20412;-55
2022/08/03 07:48:49;;;;;;;;;;;;;;;23.16;100.00;101432.06;2615176;36;21139;-57
2022/08/03 07:51:17;;;;;;;;;;;;;;;23.39;100.00;101428.94;2615666;36;19981;-58
2022/08/03 07:53:45;;;;;;;;;;;;;;;23.38;100.00;101438.25;2615862;36;19977;-54
2022/08/03 07:56:15;;;;;;;;;;;;;;;23.59;100.00;101439.13;2614691;36;20352;-55
2022/08/03 07:58:43;;;;;;;;;;;;;;;23.42;100.00;101439.53;2614900;36;19973;-58
2022/08/03 08:01:11;;;;;;;;;;;;;;;23.54;100.00;101442.50;2615309;36;19951;-55
2022/08/03 08:03:39;;;;;;;;;;;;;;;23.77;100.00;101433.03;2614619;36;19951;-56
2022/08/03 08:06:08;;;;;;;;;;;;;;;23.95;100.00;101426.94;2615324;36;19965;-57
2022/08/03 08:08:36;;;;;;;;;;;;;;;24.03;100.00;101434.97;2615890;31;20448;-57
2022/08/03 08:11:04;;;;;;;;;;;;;;;24.15;100.00;101437.94;2615722;36;19950;-56
2022/08/03 08:13:36;;;;;;;;;;;;;;;24.29;100.00;101433.25;2615212;31;19939;-56
2022/08/03 08:16:04;;;;;;;;;;;;;;;24.23;100.00;101432.19;2614854;36;19950;-55
2022/08/03 08:18:33;;;;;;;;;;;;;;;24.27;100.00;101438.97;2615112;36;19938;-52
2022/08/03 08:21:02;;;;;;;;;;;;;;;24.18;100.00;101437.50;2615243;36;19950;-57
2022/08/03 08:23:30;;;;;;;;;;;;;;;24.36;100.00;101445.09;2615692;36;20460;-56
2022/08/03 08:25:58;;;;;;;;;;;;;;;24.40;100.00;101449.13;2615457;36;19950;-55
2022/08/03 08:28:26;;;;;;;;;;;;;;;24.52;100.00;101448.47;2615393;36;20436;-52
2022/08/03 08:30:57;;;;;;;;;;;;;;;24.44;100.00;101452.28;2615833;31;20335;-57
2022/08/03 08:33:25;;;;;;;;;;;;;;;24.66;100.00;101442.75;2614365;36;19966;-55
2022/08/03 08:35:54;;;;;;;;;;;;;;;24.45;100.00;101443.81;2615125;36;20428;-56
2022/08/03 08:38:23;;;;;;;;;;;;;;;24.51;100.00;101446.78;2615772;31;19951;-53
2022/08/03 08:40:51;;;;;;;;;;;;;;;24.43;100.00;101448.69;2615231;36;19939;-55
2022/08/03 08:43:19;;;;;;;;;;;;;;;25.13;100.00;101445.34;2615298;36;20483;-57
2022/08/03 08:45:48;;;;;;;;;;;;;;;24.98;100.00;101447.50;2615523;36;19954;-54
2022/08/03 08:48:19;;;;;;;;;;;;;;;25.14;100.00;101444.25;2614634;31;19950;-56
2022/08/03 08:50:47;;;;;;;;;;;;;;;25.25;100.00;101452.91;2615509;36;19946;-57
2022/08/03 08:53:17;;;;;;;;;;;;;;;25.11;100.00;101452.13;2615668;36;19981;-55
2022/08/03 08:55:47;;;;;;;;;;;;;;;25.60;100.00;101441.50;2615743;36;20036;-54
2022/08/03 08:58:17;;;;;;;;;;;;;;;25.40;100.00;101439.72;2615041;36;19946;-55
2022/08/03 09:00:47;;;;;;;;;;;;;;;25.36;100.00;101449.50;2615505;36;19977;-52
2022/08/03 09:03:16;;;;;;;;;;;;;;;25.48;100.00;101442.19;2614502;36;19951;-55
2022/08/03 09:05:47;;;;;;;;;;;;;;;25.86;100.00;101445.97;2615679;36;19961;-58
2022/08/03 09:08:15;;;;;;;;;;;;;;;25.84;100.00;101442.63;2615004;36;19946;-56
2022/08/03 09:10:44;;;;;;;;;;;;;;;25.84;100.00;101428.84;2615912;36;19950;-60
2022/08/03 09:13:12;;;;;;;;;;;;;;;26.49;100.00;101442.25;2615030;36;19954;-57
2022/08/03 09:15:41;;;;;;;;;;;;;;;26.45;100.00;101438.25;2615139;36;19939;-55
2022/08/03 09:18:09;;;;;;;;;;;;;;;26.51;100.00;101439.28;2614720;36;19973;-55
2022/08/03 09:20:38;;;;;;;;;;;;;;;25.92;100.00;101431.28;2614973;36;19946;-56
2022/08/03 09:23:10;;;;;;;;;;;;;;;26.31;100.00;101447.75;2615082;36;20526;-54
2022/08/03 09:25:39;;;;;;;;;;;;;;;26.58;100.00;101443.63;2615403;31;19969;-57
2022/08/03 09:28:09;;;;;;;;;;;;;;;26.73;100.00;101442.47;2615907;31;19954;-54
2022/08/03 09:30:37;;;;;;;;;;;;;;;26.63;100.00;101436.59;2615269;36;19950;-57
2022/08/03 09:33:05;;;;;;;;;;;;;;;26.68;100.00;101428.50;2613974;36;19939;-56
2022/08/03 09:35:34;;;;;;;;;;;;;;;26.96;100.00;101433.47;2615301;36;20351;-56
2022/08/03 09:38:15;;;;;;;;;;;;;;;27.26;100.00;101436.25;2615300;36;19973;-55
2022/08/03 09:40:43;;;;;;;;;;;;;;;27.60;100.00;101428.34;2615047;36;20665;-58
2022/08/03 09:43:12;;;;;;;;;;;;;;;27.35;100.00;101436.81;2615134;36;19966;-56
2022/08/03 09:45:41;;;;;;;;;;;;;;;27.64;100.00;101444.50;2615621;36;19950;-56
2022/08/03 09:48:25;;;;;;;;;;;;;;;27.48;100.00;101435.78;2614061;36;19990;-57
2022/08/03 09:50:54;;;;;;;;;;;;;;;27.02;100.00;101438.06;2615535;36;19947;-53
2022/08/03 09:53:25;;;;;;;;;;;;;;;27.38;100.00;101432.75;2615274;36;19977;-57
2022/08/03 09:55:54;;;;;;;;;;;;;;;27.35;100.00;101438.72;2615603;31;20435;-56
2022/08/03 09:58:23;;;;;;;;;;;;;;;27.87;100.00;101435.38;2614952;36;19958;-59
2022/08/03 10:00:55;;;;;;;;;;;;;;;27.65;100.00;101432.34;2615852;31;19946;-52
2022/08/03 10:03:23;;;;;;;;;;;;;;;27.70;100.00;101441.59;2613948;36;20014;-54
2022/08/03 10:05:57;;;;;;;;;;;;;;;27.61;100.00;101440.28;2614847;54;19938;-54
2022/08/03 10:08:30;;;;;;;;;;;;;;;27.94;100.00;101442.53;2615039;31;19946;-58
2022/08/03 10:10:59;;;;;;;;;;;;;;;27.94;100.00;101436.97;2615252;36;20564;-57
2022/08/03 10:13:27;;;;;;;;;;;;;;;27.83;100.00;101446.09;2614719;36;19958;-56
2022/08/03 10:15:55;;;;;;;;;;;;;;;27.70;100.00;101449.06;2615395;31;20393;-52
2022/08/03 10:18:23;;;;;;;;;;;;;;;27.71;100.00;101439.69;2614415;36;19958;-56
2022/08/03 10:20:54;;;;;;;;;;;;;;;27.94;100.00;101448.06;2615604;36;20078;-50
2022/08/03 10:23:23;;;;;;;;;;;;;;;28.32;100.00;101432.91;2615038;36;19969;-58
2022/08/03 10:25:56;;;;;;;;;;;;;;;28.58;100.00;101444.59;2614867;31;19950;-58
2022/08/03 10:28:24;;;;;;;;;;;;;;;28.58;100.00;101430.75;2614726;36;20456;-52
2022/08/03 10:30:54;;;;;;;;;;;;;;;28.46;100.00;101433.53;2614805;36;19958;-56
2022/08/03 10:33:23;;;;;;;;;;;;;;;28.21;100.00;101425.47;2614465;31;19988;-56
2022/08/03 10:35:53;;;;;;;;;;;;;;;28.27;100.00;101418.16;2614887;36;19955;-58
2022/08/03 10:38:23;;;;;;;;;;;;;;;28.25;100.00;101423.94;2615186;36;19955;-54
2022/08/03 10:40:56;;;;;;;;;;;;;;;28.38;100.00;101417.28;2614897;36;19953;-58
2022/08/03 10:43:27;;;;;;;;;;;;;;;28.92;100.00;101419.88;2614750;36;19988;-54
2022/08/03 10:45:55;;;;;;;;;;;;;;;29.15;100.00;101416.19;2615883;31;19954;-51
2022/08/03 10:48:24;;;;;;;;;;;;;;;29.00;100.00;101422.25;2614421;36;19969;-51
2022/08/03 10:50:52;;;;;;;;;;;;;;;28.84;100.00;101418.31;2614303;36;19950;-56
2022/08/03 10:53:39;;;;;;;;;;;;;;;28.97;100.00;101428.25;2615268;31;19977;-54
2022/08/03 10:59:12;;;;;;;;;;;;;;;28.83;100.00;101407.50;2615196;36;20215;-55
2022/08/03 11:01:54;;;;;;;;;;;;;;;28.76;100.00;101404.84;2614533;36;19986;-57
2022/08/03 11:04:23;;;;;;;;;;;;;;;28.55;100.00;101403.53;2613577;36;19946;-47
2022/08/03 11:07:11;;;;;;;;;;;;;;;28.67;100.00;101407.16;2614339;36;19980;-59
2022/08/03 11:09:42;;;;;;;;;;;;;;;29.22;100.00;101401.34;2615023;36;19939;-56
2022/08/03 11:12:22;;;;;;;;;;;;;;;29.10;100.00;101404.97;2613674;36;19957;-59
2022/08/03 11:14:54;;;;;;;;;;;;;;;29.24;100.00;101397.25;2615221;36;19985;-53
2022/08/03 11:17:22;;;;;;;;;;;;;;;29.59;100.00;101401.75;2614295;36;20348;-57
2022/08/03 11:19:51;;;;;;;;;;;;;;;29.73;95.92;101406.97;2614515;36;19961;-57
2022/08/03 11:22:20;;;;;;;;;;;;;;;30.09;100.00;101404.81;2614274;36;19946;-57
2022/08/03 11:25:01;;;;;;;;;;;;;;;30.42;100.00;101417.84;2615822;36;20447;-57
2022/08/03 11:27:33;;;;;;;;;;;;;;;30.26;91.60;101411.19;2615788;31;19950;-57
2022/08/03 11:30:08;;;;;;;;;;;;;;;29.80;98.31;101408.50;2614781;36;19950;-59
2022/08/03 11:32:51;;;;;;;;;;;;;;;30.07;97.33;101402.28;2615535;36;20335;-54
2022/08/03 11:35:20;;;;;;;;;;;;;;;30.08;90.00;101406.75;2615692;36;19950;-55
2022/08/03 11:38:03;;;;;;;;;;;;;;;29.89;90.52;101400.63;2614746;36;19951;-52
2022/08/03 11:40:35;;;;;;;;;;;;;;;30.59;90.23;101409.44;2616410;36;20410;-56
2022/08/03 11:43:04;;;;;;;;;;;;;;;29.91;82.40;101409.53;2614690;36;19957;-50
2022/08/03 11:45:35;;;;;;;;;;;;;;;30.09;91.88;101404.81;2615395;31;20404;-51
2022/08/03 11:48:14;;;;;;;;;;;;;;;29.86;85.24;101424.16;2615550;36;20392;-53
2022/08/03 11:50:44;;;;;;;;;;;;;;;30.42;84.15;101417.84;2615602;36;19957;-56
2022/08/03 11:53:15;;;;;;;;;;;;;;;30.27;84.78;101410.09;2615541;36;19977;-54
2022/08/03 11:55:45;;;;;;;;;;;;;;;30.53;86.14;101414.09;2615912;36;20014;-59
2022/08/03 11:58:17;;;;;;;;;;;;;;;30.09;77.69;101410.38;2615029;31;19950;-57
2022/08/03 12:00:47;;;;;;;;;;;;;;;30.16;81.92;101411.84;2615892;31;19946;-58
2022/08/03 12:03:19;;;;;;;;;;;;;;;30.54;76.49;101410.22;2616148;54;19943;-54
2022/08/03 12:05:49;;;;;;;;;;;;;;;30.03;77.48;101401.09;2615208;36;19953;-54
2022/08/03 12:08:18;;;;;;;;;;;;;;;30.58;85.82;101413.34;2614743;36;19958;-56
2022/08/03 12:10:50;;;;;;;;;;;;;;;30.87;80.67;101418.69;2615137;36;19954;-58
2022/08/03 12:13:18;;;;;;;;;;;;;;;30.09;72.62;101415.91;2615300;36;19942;-50
2022/08/03 12:15:52;;;;;;;;;;;;;;;30.19;74.40;101404.97;2615433;36;19947;-55
2022/08/03 12:18:20;;;;;;;;;;;;;;;30.90;81.62;101415.38;2615213;31;19938;-59
2022/08/03 12:20:49;;;;;;;;;;;;;;;31.15;76.47;101405.69;2615249;36;20361;-55
2022/08/03 12:23:17;;;;;;;;;;;;;;;31.06;71.59;101403.38;2615124;36;19947;-54
2022/08/03 12:25:46;;;;;;;;;;;;;;;31.17;74.00;101406.28;2615418;36;19958;-59
2022/08/03 12:28:17;;;;;;;;;;;;;;;31.36;64.05;101418.72;2615305;36;19954;-57
2022/08/03 12:30:46;;;;;;;;;;;;;;;31.12;66.26;101411.78;2615718;36;20436;-55
2022/08/03 12:33:27;;;;;;;;;;;;;;;30.72;70.71;101413.78;2614877;31;21741;-54
2022/08/03 12:36:05;;;;;;;;;;;;;;;31.20;70.99;101419.66;2616089;36;19950;-58
2022/08/03 12:38:34;;;;;;;;;;;;;;;31.10;66.91;101414.84;2615428;36;19942;-54
2022/08/03 12:41:03;;;;;;;;;;;;;;;30.95;67.36;101415.47;2615769;36;19943;-55
2022/08/03 12:43:31;;;;;;;;;;;;;;;31.37;69.02;101414.81;2615145;36;20423;-55
2022/08/03 12:46:12;;;;;;;;;;;;;;;31.09;65.77;101418.69;2615811;36;19987;-55
2022/08/03 12:48:56;;;;;;;;;;;;;;;30.87;69.45;101410.34;2613742;36;20413;-53
2022/08/03 12:51:27;;;;;;;;;;;;;;;30.71;67.22;101412.09;2615462;36;19947;-52
2022/08/03 12:53:55;;;;;;;;;;;;;;;30.98;69.96;101414.09;2615395;36;20444;-55